Time,TemperatureF,DewpointF,PressureIn,WindDirection,WindDirectionDegrees,WindSpeedMPH,WindSpeedGustMPH,Humidity,HourlyPrecipIn,Conditions,Clouds,dailyrainin,SoftwareType,DateUTC
2013-03-14 00:13:00,36.1,27.0,29.71,WNW,288,4.0,8.0,70,0.00,,,0.00,weatherlink.com 1.10,2013-03-14 04:13:00,
2013-03-14 00:28:00,35.8,27.0,29.71,WNW,288,6.0,7.0,70,0.00,,,0.00,weatherlink.com 1.10,2013-03-14 04:28:00,
2013-03-14 00:43:00,35.0,27.0,29.70,WNW,288,3.0,6.0,72,0.00,,,0.00,weatherlink.com 1.10,2013-03-14 04:43:00,
2013-03-14 00:58:00,34.4,27.0,29.70,WNW,288,3.0,5.0,73,0.00,,,0.00,weatherlink.com 1.10,2013-03-14 04:58:00,
2013-03-14 01:13:00,33.6,27.0,29.70,WNW,288,6.0,9.0,76,0.00,,,0.00,weatherlink.com 1.10,2013-03-14 05:13:00,
2013-03-14 01:28:00,33.4,27.0,29.70,WNW,288,5.0,7.0,77,0.00,,,0.00,weatherlink.com 1.10,2013-03-14 05:28:00,
2013-03-14 01:43:00,32.8,27.0,29.70,WNW,288,4.0,6.0,78,0.00,,,0.00,weatherlink.com 1.10,2013-03-14 05:43:00,
2013-03-14 01:58:00,32.9,27.0,29.71,WNW,288,7.0,10.0,78,0.00,,,0.00,weatherlink.com 1.10,2013-03-14 05:58:00,
2013-03-14 02:13:00,33.1,27.0,29.71,WNW,288,7.0,9.0,78,0.00,,,0.00,weatherlink.com 1.10,2013-03-14 06:13:00,
2013-03-14 02:28:00,33.0,27.0,29.71,WNW,288,7.0,9.0,77,0.00,,,0.00,weatherlink.com 1.10,2013-03-14 06:28:00,
2013-03-14 02:43:00,32.8,26.0,29.71,WNW,288,5.0,9.0,77,0.00,,,0.00,weatherlink.com 1.10,2013-03-14 06:43:00,
2013-03-14 02:58:00,32.6,26.0,29.72,WNW,288,5.0,7.0,78,0.00,,,0.00,weatherlink.com 1.10,2013-03-14 06:58:00,
2013-03-14 03:13:00,32.3,26.0,29.71,WNW,288,5.0,8.0,78,0.00,,,0.00,weatherlink.com 1.10,2013-03-14 07:13:00,
2013-03-14 03:28:00,32.4,26.0,29.71,WNW,288,5.0,8.0,78,0.00,,,0.00,weatherlink.com 1.10,2013-03-14 07:28:00,
2013-03-14 03:43:00,32.1,26.0,29.71,WNW,288,6.0,6.0,78,0.00,,,0.00,weatherlink.com 1.10,2013-03-14 07:43:00,
2013-03-14 03:58:00,32.1,26.0,29.71,WNW,288,7.0,8.0,78,0.00,,,0.00,weatherlink.com 1.10,2013-03-14 07:58:00,
2013-03-14 04:13:00,32.1,26.0,29.71,WNW,288,4.0,7.0,78,0.00,,,0.00,weatherlink.com 1.10,2013-03-14 08:13:00,
2013-03-14 04:28:00,32.2,26.0,29.71,WNW,288,6.0,7.0,78,0.00,,,0.00,weatherlink.com 1.10,2013-03-14 08:28:00,
2013-03-14 04:43:00,31.6,26.0,29.71,WNW,288,5.0,6.0,79,0.00,,,0.00,weatherlink.com 1.10,2013-03-14 08:43:00,
2013-03-14 04:59:00,30.9,25.0,29.71,WNW,288,0.0,2.0,80,0.00,,,0.00,weatherlink.com 1.10,2013-03-14 08:59:00,
2013-03-14 05:14:00,29.5,25.0,29.71,WNW,288,1.0,4.0,83,0.00,,,0.00,weatherlink.com 1.10,2013-03-14 09:14:00,
2013-03-14 05:29:00,29.2,26.0,29.71,WNW,288,0.0,4.0,86,0.00,,,0.00,weatherlink.com 1.10,2013-03-14 09:29:00,
2013-03-14 05:44:00,29.0,25.0,29.71,WNW,288,0.0,0.0,85,0.00,,,0.00,weatherlink.com 1.10,2013-03-14 09:44:00,
2013-03-14 05:59:00,28.8,25.0,29.71,WNW,288,0.0,0.0,87,0.00,,,0.00,weatherlink.com 1.10,2013-03-14 09:59:00,
2013-03-14 06:14:00,27.9,25.0,29.71,WNW,288,0.0,0.0,87,0.00,,,0.00,weatherlink.com 1.10,2013-03-14 10:14:00,
2013-03-14 06:29:00,27.6,25.0,29.71,WNW,288,0.0,0.0,89,0.00,,,0.00,weatherlink.com 1.10,2013-03-14 10:29:00,
2013-03-14 06:44:00,28.5,26.0,29.72,WNW,288,0.0,4.0,90,0.00,,,0.00,weatherlink.com 1.10,2013-03-14 10:44:00,
2013-03-14 06:59:00,28.3,26.0,29.72,WNW,288,1.0,2.0,90,0.00,,,0.00,weatherlink.com 1.10,2013-03-14 10:59:00,
2013-03-14 07:14:00,28.7,26.0,29.72,WNW,288,0.0,4.0,90,0.00,,,0.00,weatherlink.com 1.10,2013-03-14 11:14:00,
2013-03-14 07:29:00,29.8,27.0,29.72,WNW,288,0.0,0.0,90,0.00,,,0.00,weatherlink.com 1.10,2013-03-14 11:29:00,
2013-03-14 07:44:00,30.6,28.0,29.72,WNW,288,0.0,2.0,90,0.00,,,0.00,weatherlink.com 1.10,2013-03-14 11:44:00,
2013-03-14 07:59:00,31.7,29.0,29.72,WNW,288,0.0,1.0,90,0.00,,,0.00,weatherlink.com 1.10,2013-03-14 11:59:00,
2013-03-14 08:29:00,33.4,30.0,29.71,WNW,286,2.0,7.0,86,0.00,,,0.00,weatherlink.com 1.10,2013-03-14 12:29:00,
2013-03-14 08:44:00,33.8,29.0,29.71,WNW,286,7.0,9.0,83,0.00,,,0.00,weatherlink.com 1.10,2013-03-14 12:44:00,
2013-03-14 08:59:00,33.9,31.0,29.71,WNW,286,5.0,7.0,88,0.00,,,0.00,weatherlink.com 1.10,2013-03-14 12:59:00,
2013-03-14 09:14:00,34.8,30.0,29.71,WNW,286,5.0,7.0,82,0.00,,,0.00,weatherlink.com 1.10,2013-03-14 13:14:00,
2013-03-14 09:29:00,36.2,30.0,29.71,WNW,286,6.0,8.0,77,0.00,,,0.00,weatherlink.com 1.10,2013-03-14 13:29:00,
2013-03-14 09:44:00,37.2,29.0,29.71,WNW,282,6.0,11.0,73,0.00,,,0.00,weatherlink.com 1.10,2013-03-14 13:44:00,
2013-03-14 09:59:00,38.0,29.0,29.71,West,280,2.0,11.0,69,0.00,,,0.00,weatherlink.com 1.10,2013-03-14 13:59:00,
2013-03-14 10:14:00,38.5,27.0,29.70,WNW,286,6.0,10.0,64,0.00,,,0.00,weatherlink.com 1.10,2013-03-14 14:14:00,
2013-03-14 10:29:00,39.4,27.0,29.70,NW,318,9.0,11.0,61,0.00,,,0.00,weatherlink.com 1.10,2013-03-14 14:29:00,
2013-03-14 10:44:00,39.3,26.0,29.70,WNW,289,5.0,12.0,59,0.00,,,0.00,weatherlink.com 1.10,2013-03-14 14:44:00,
2013-03-14 10:59:00,40.8,28.0,29.69,WNW,289,2.0,8.0,60,0.00,,,0.00,weatherlink.com 1.10,2013-03-14 14:59:00,
2013-03-14 11:14:00,40.7,27.0,29.69,WNW,290,4.0,6.0,59,0.00,,,0.00,weatherlink.com 1.10,2013-03-14 15:14:00,
2013-03-14 11:29:00,41.5,28.0,29.68,WNW,300,6.0,10.0,58,0.00,,,0.00,weatherlink.com 1.10,2013-03-14 15:29:00,
2013-03-14 11:44:00,41.1,27.0,29.68,SW,235,0.0,11.0,57,0.00,,,0.00,weatherlink.com 1.10,2013-03-14 15:44:00,
2013-03-14 11:59:00,40.8,27.0,29.67,SSW,192,4.0,12.0,58,0.00,,,0.00,weatherlink.com 1.10,2013-03-14 15:59:00,
2013-03-14 12:14:00,41.4,27.0,29.67,SSW,204,10.0,15.0,58,0.00,,,0.00,weatherlink.com 1.10,2013-03-14 16:14:00,
2013-03-14 12:29:00,41.6,26.0,29.66,SSW,202,9.0,14.0,54,0.00,,,0.00,weatherlink.com 1.10,2013-03-14 16:29:00,
2013-03-14 12:44:00,40.5,28.0,29.66,SW,219,11.0,16.0,61,0.00,,,0.00,weatherlink.com 1.10,2013-03-14 16:44:00,
2013-03-14 12:59:00,41.2,29.0,29.66,SSW,210,11.0,16.0,62,0.00,,,0.00,weatherlink.com 1.10,2013-03-14 16:59:00,
2013-03-14 13:14:00,40.4,29.0,29.65,WSW,242,7.0,15.0,64,0.00,,,0.00,weatherlink.com 1.10,2013-03-14 17:14:00,
2013-03-14 13:29:00,41.1,30.0,29.64,SSW,207,14.0,15.0,65,0.00,,,0.00,weatherlink.com 1.10,2013-03-14 17:29:00,
2013-03-14 13:45:00,40.2,30.0,29.64,SW,219,0.0,15.0,66,0.00,,,0.00,weatherlink.com 1.10,2013-03-14 17:45:00,
2013-03-14 14:00:00,40.7,28.0,29.63,WSW,247,5.0,15.0,61,0.00,,,0.00,weatherlink.com 1.10,2013-03-14 18:00:00,
2013-03-14 14:15:00,40.7,26.0,29.63,SSW,197,3.0,15.0,57,0.00,,,0.00,weatherlink.com 1.10,2013-03-14 18:15:00,
2013-03-14 14:30:00,40.4,26.0,29.63,South,190,13.0,19.0,56,0.00,,,0.00,weatherlink.com 1.10,2013-03-14 18:30:00,
2013-03-14 14:45:00,39.8,26.0,29.63,SSW,194,10.0,19.0,57,0.00,,,0.00,weatherlink.com 1.10,2013-03-14 18:45:00,
2013-03-14 15:00:00,39.4,25.0,29.63,SSW,194,8.0,20.0,56,0.00,,,0.00,weatherlink.com 1.10,2013-03-14 19:00:00,
2013-03-14 15:15:00,39.5,24.0,29.62,SW,229,12.0,15.0,54,0.00,,,0.00,weatherlink.com 1.10,2013-03-14 19:15:00,
2013-03-14 15:30:00,40.0,23.0,29.62,SW,214,9.0,16.0,51,0.00,,,0.00,weatherlink.com 1.10,2013-03-14 19:30:00,
2013-03-14 15:45:00,40.1,23.0,29.62,SSW,194,10.0,19.0,51,0.00,,,0.00,weatherlink.com 1.10,2013-03-14 19:45:00,
2013-03-14 16:00:00,39.4,24.0,29.62,South,182,11.0,22.0,54,0.00,,,0.00,weatherlink.com 1.10,2013-03-14 20:00:00,
2013-03-14 16:15:00,39.3,25.0,29.62,SSW,200,16.0,19.0,57,0.00,,,0.00,weatherlink.com 1.10,2013-03-14 20:15:00,
2013-03-14 16:30:00,38.8,26.0,29.62,South,191,11.0,19.0,60,0.00,,,0.00,weatherlink.com 1.10,2013-03-14 20:30:00,
2013-03-14 16:45:00,38.2,26.0,29.62,South,189,14.0,18.0,63,0.00,,,0.00,weatherlink.com 1.10,2013-03-14 20:45:00,
2013-03-14 17:00:00,38.1,25.0,29.62,SSW,199,7.0,15.0,60,0.00,,,0.00,weatherlink.com 1.10,2013-03-14 21:00:00,
2013-03-14 17:15:00,37.7,26.0,29.63,SW,232,9.0,18.0,62,0.00,,,0.00,weatherlink.com 1.10,2013-03-14 21:15:00,
2013-03-14 17:30:00,36.2,27.0,29.63,SW,230,5.0,13.0,70,0.00,,,0.00,weatherlink.com 1.10,2013-03-14 21:30:00,
2013-03-14 17:45:00,35.4,28.0,29.64,WNW,285,9.0,13.0,74,0.00,,,0.00,weatherlink.com 1.10,2013-03-14 21:45:00,
2013-03-14 18:00:00,35.1,29.0,29.64,WNW,285,6.0,9.0,77,0.00,,,0.00,weatherlink.com 1.10,2013-03-14 22:00:00,
2013-03-14 18:15:00,34.0,29.0,29.65,NW,314,9.0,12.0,83,0.00,,,0.00,weatherlink.com 1.10,2013-03-14 22:15:00,
2013-03-14 18:30:00,33.1,30.0,29.65,NW,314,5.0,8.0,87,0.00,,,0.00,weatherlink.com 1.10,2013-03-14 22:30:00,
2013-03-14 18:45:00,32.6,30.0,29.66,NW,313,8.0,8.0,90,0.00,,,0.00,weatherlink.com 1.10,2013-03-14 22:45:00,
2013-03-14 19:00:00,32.0,30.0,29.66,WNW,298,8.0,15.0,91,0.00,,,0.00,weatherlink.com 1.10,2013-03-14 23:00:00,
2013-03-14 19:15:00,31.5,30.0,29.67,WNW,299,7.0,13.0,92,0.00,,,0.00,weatherlink.com 1.10,2013-03-14 23:15:00,
2013-03-14 19:30:00,30.7,29.0,29.68,NW,307,8.0,14.0,93,0.00,,,0.00,weatherlink.com 1.10,2013-03-14 23:30:00,
2013-03-14 19:45:00,30.4,29.0,29.68,WNW,303,10.0,13.0,94,0.00,,,0.00,weatherlink.com 1.10,2013-03-14 23:45:00,
2013-03-14 20:00:00,29.8,28.0,29.68,NW,305,10.0,20.0,93,0.00,,,0.00,weatherlink.com 1.10,2013-03-15 00:00:00,
2013-03-14 20:15:00,29.4,28.0,29.68,WNW,300,11.0,21.0,93,0.00,,,0.00,weatherlink.com 1.10,2013-03-15 00:15:00,
2013-03-14 20:30:00,29.0,27.0,29.69,NW,321,19.0,19.0,93,0.00,,,0.00,weatherlink.com 1.10,2013-03-15 00:30:00,
2013-03-14 20:45:00,28.7,27.0,29.69,NW,313,9.0,14.0,92,0.00,,,0.00,weatherlink.com 1.10,2013-03-15 00:45:00,
2013-03-14 21:00:00,28.8,25.0,29.69,NW,308,8.0,20.0,86,0.00,,,0.00,weatherlink.com 1.10,2013-03-15 01:00:00,
2013-03-14 21:15:00,28.9,24.0,29.69,WNW,293,11.0,14.0,81,0.00,,,0.00,weatherlink.com 1.10,2013-03-15 01:15:00,
2013-03-14 21:30:00,28.6,22.0,29.69,WNW,291,14.0,25.0,75,0.00,,,0.00,weatherlink.com 1.10,2013-03-15 01:30:00,
2013-03-14 21:45:00,27.8,20.0,29.70,NW,313,16.0,23.0,73,0.00,,,0.00,weatherlink.com 1.10,2013-03-15 01:45:00,
2013-03-14 22:00:00,27.0,18.0,29.70,NW,310,14.0,27.0,68,0.00,,,0.00,weatherlink.com 1.10,2013-03-15 02:00:00,
2013-03-14 22:15:00,26.5,18.0,29.70,NW,315,24.0,28.0,70,0.00,,,0.00,weatherlink.com 1.10,2013-03-15 02:15:00,
2013-03-14 22:30:00,25.8,19.0,29.71,NW,326,15.0,26.0,74,0.00,,,0.00,weatherlink.com 1.10,2013-03-15 02:30:00,
2013-03-14 22:45:00,25.4,19.0,29.71,NW,321,14.0,22.0,75,0.00,,,0.00,weatherlink.com 1.10,2013-03-15 02:45:00,
2013-03-14 23:00:00,24.3,18.0,29.71,NNW,337,18.0,30.0,76,0.00,,,0.00,weatherlink.com 1.10,2013-03-15 03:00:00,
2013-03-14 23:15:00,23.4,17.0,29.72,NW,324,16.0,26.0,77,0.00,,,0.00,weatherlink.com 1.10,2013-03-15 03:15:00,
2013-03-14 23:30:00,22.8,16.0,29.72,NNW,329,12.0,22.0,76,0.00,,,0.00,weatherlink.com 1.10,2013-03-15 03:30:00,
2013-03-14 23:45:00,22.4,16.0,29.72,NNW,331,21.0,25.0,77,0.00,,,0.00,weatherlink.com 1.10,2013-03-15 03:45:00,